Meadville, PA

10:55 PM EDT on September 02, 2014 (GMT -0400)
KPAMEADV6 | Change Station
CLOSE
Current Station
Personal Weather Station
Location: Meadville, PA
Elevation: 1467 ft
Nearby Weather Stations

Elev 1467 ft 41.65 °N, 80.14 °W | Updated 3 minutes ago

Clear
Clear
65.3 °F
Feels Like 65.3 °F
N
0.0
Wind Variable Wind from North
Gusts 0.0 mph

Today
High -- | Low -- °F
--% Chance of Precip.
Yesterday
High -- | Low -- °F
Precip. -- in
6:47 AM 7:52 PM
First Quarter, 57% visible
Pressure 29.94 in
Visibility 10.0 miles
Clouds Clear
Dew Point 64 °F
Humidity 95%
Rainfall 0.37 in
Snow Depth Not available.
UV 0 out of 12
Pollen 6.00 out of 12
Air Quality Not available.
Flu Activity Not available.
METAR KGKJ 030153Z AUTO 00000KT 10SM CLR 18/17 A2996 RMK AO2 SLP139 T01830172 TSNO

More Conditions Fewer Conditions

Pressure 29.94 in
Visibility 10.0 miles
Clouds Clear
Dew Point 64 °F
Humidity 95%
Rainfall 0.37 in
Snow Depth Not available.
UV 0 out of 12
Pollen 6.00 out of 12
Air Quality Not available.
Flu Activity Not available.
METAR KGKJ 030153Z AUTO 00000KT 10SM CLR 18/17 A2996 RMK AO2 SLP139 T01830172 TSNO

More Conditions Fewer Conditions

10-Day Weather Forecast

Almanac

Astronomy

Sep. 02, 2014 Rise Set
Actual Time 6:47 AM EDT 7:52 PM EDT
Civil Twilight 6:19 AM EDT 8:20 PM EDT
Nautical Twilight 5:45 AM EDT 8:54 PM EDT
Astronomical Twilight 5:09 AM EDT 9:29 PM EDT
Moon 2:36 PM EDT (9/2) No Moon Set
Length of Visible Light 14h 01m
Length of Day
13h 04m
Tomorrow will be 2m 42s shorter.
First Quarter, 57% of the Moon is Illuminated
Today
First Quarter
Sep 8
Full
Sep 15
Last Quarter
Sep 24
New
Oct 1
First Quarter

Today's Extremes

State Highs State Lows

Community

WunderPhotos

Upload Photos

1,749,845 photos uploaded!

Nearby

Snow Depth

Station Depth Elevation
No new snow has been reported.

Earthquake Activity

City Distance Mag. Time & Date
No recent earthquake activity has been reported nearby.
Minimum magnitude displayed is 2.5.

Coastal Water Temperatures

Place Temperature
Fairport, OH 73.0 °F
Buffalo, NY 73.9 °F

Nearby Weather Stations